createdAt,value
2022-11-13T00:01:13.576Z,2.91
2022-11-13T00:04:01.674Z,2.87
2022-11-13T00:06:48.458Z,2.86
2022-11-13T00:09:34.862Z,2.87
2022-11-13T00:12:21.540Z,2.80
2022-11-13T00:15:08.747Z,2.79
2022-11-13T00:17:55.188Z,2.76
2022-11-13T00:20:43.206Z,2.72
2022-11-13T00:23:29.727Z,2.68
2022-11-13T00:26:18.292Z,2.64
2022-11-13T00:29:04.906Z,2.61
2022-11-13T00:31:51.665Z,2.51
2022-11-13T00:34:53.314Z,2.53
2022-11-13T00:37:41.133Z,2.53
2022-11-13T00:40:27.761Z,2.48
2022-11-13T00:43:14.060Z,2.48
2022-11-13T00:46:00.669Z,2.47
2022-11-13T00:48:47.559Z,2.46
2022-11-13T00:51:34.032Z,2.47
2022-11-13T00:54:22.159Z,2.45
2022-11-13T00:57:08.516Z,2.51
2022-11-13T00:59:55.148Z,2.48
2022-11-13T01:02:41.659Z,2.43
2022-11-13T01:05:28.615Z,2.47
2022-11-13T01:08:16.828Z,2.49
2022-11-13T01:11:09.666Z,2.43
2022-11-13T01:13:56.034Z,2.41
2022-11-13T01:16:42.342Z,2.42
2022-11-13T01:19:29.144Z,2.33
2022-11-13T01:22:15.767Z,2.31
2022-11-13T01:25:02.301Z,2.28
2022-11-13T01:27:50.226Z,2.22
2022-11-13T01:30:36.724Z,2.22
2022-11-13T01:33:23.298Z,2.21
2022-11-13T01:36:13.208Z,2.16
2022-11-13T01:38:59.819Z,2.15
2022-11-13T01:41:46.054Z,2.14
2022-11-13T01:44:52.921Z,2.17
2022-11-13T01:47:39.289Z,2.19
2022-11-13T01:50:26.090Z,2.18
2022-11-13T01:53:12.651Z,2.18
2022-11-13T01:55:59.135Z,2.10
2022-11-13T01:58:50.264Z,2.04
2022-11-13T02:01:38.499Z,2.04
2022-11-13T02:04:26.496Z,2.06
2022-11-13T02:07:15.987Z,2.02
2022-11-13T02:10:02.487Z,2.02
2022-11-13T02:12:51.793Z,1.98
2022-11-13T02:15:38.727Z,2.00
2022-11-13T02:18:28.747Z,1.98
2022-11-13T02:21:26.570Z,1.94
2022-11-13T02:24:24.992Z,1.89
2022-11-13T02:27:18.297Z,1.85
2022-11-13T02:30:19.794Z,1.82
2022-11-13T02:33:23.063Z,1.79
2022-11-13T02:36:11.671Z,1.81
2022-11-13T02:39:01.919Z,1.77
2022-11-13T02:41:49.931Z,1.76
2022-11-13T02:44:36.516Z,1.75
2022-11-13T02:47:23.229Z,1.68
2022-11-13T02:50:11.326Z,1.68
2022-11-13T02:52:58.038Z,1.68
2022-11-13T02:55:44.495Z,1.68
2022-11-13T02:58:32.647Z,1.62
2022-11-13T03:01:19.413Z,1.56
2022-11-13T03:04:05.950Z,1.57
2022-11-13T03:06:52.365Z,1.51
2022-11-13T03:09:38.858Z,1.47
2022-11-13T03:12:25.346Z,1.40
2022-11-13T03:15:13.654Z,1.43
2022-11-13T03:18:04.250Z,1.40
2022-11-13T03:20:53.997Z,1.41
2022-11-13T03:23:42.099Z,1.37
2022-11-13T03:26:29.235Z,1.36
2022-11-13T03:29:16.062Z,1.36
2022-11-13T03:32:04.208Z,1.33
2022-11-13T03:34:50.610Z,1.36
2022-11-13T03:37:37.144Z,1.33
2022-11-13T03:40:23.941Z,1.28
2022-11-13T03:43:10.618Z,1.31
2022-11-13T03:45:57.351Z,1.28
2022-11-13T03:48:45.356Z,1.24
2022-11-13T03:51:32.244Z,1.24
2022-11-13T03:54:19.021Z,1.27
2022-11-13T03:57:06.678Z,1.25
2022-11-13T03:59:52.937Z,1.25
2022-11-13T04:02:39.511Z,1.21
2022-11-13T04:05:27.566Z,1.16
2022-11-13T04:08:14.130Z,1.20
2022-11-13T04:11:07.709Z,1.16
2022-11-13T04:13:54.239Z,1.17
2022-11-13T04:16:40.918Z,1.13
2022-11-13T04:19:27.608Z,1.14
2022-11-13T04:22:15.558Z,1.13
2022-11-13T04:25:02.054Z,1.13
2022-11-13T04:27:50.189Z,1.08
2022-11-13T04:30:36.859Z,1.10
2022-11-13T04:33:23.677Z,1.10
2022-11-13T04:36:10.523Z,1.03
2022-11-13T04:38:58.539Z,1.03
2022-11-13T04:42:02.558Z,1.01
2022-11-13T04:44:49.366Z,0.99
2022-11-13T04:47:35.856Z,0.99
2022-11-13T04:50:22.874Z,0.92
2022-11-13T04:53:09.134Z,0.97
2022-11-13T04:55:57.192Z,0.99
2022-11-13T04:58:43.914Z,0.95
2022-11-13T05:01:30.491Z,0.87
2022-11-13T05:04:17.744Z,0.87
2022-11-13T05:07:04.143Z,0.90
2022-11-13T05:09:50.508Z,0.89
2022-11-13T05:12:38.372Z,0.80
2022-11-13T05:15:24.967Z,0.84
2022-11-13T05:18:11.413Z,0.82
2022-11-13T05:20:57.997Z,0.79
2022-11-13T05:23:44.674Z,0.79
2022-11-13T05:26:31.740Z,0.80
2022-11-13T05:29:19.955Z,0.75
2022-11-13T05:32:06.720Z,0.71
2022-11-13T05:34:53.399Z,0.76
2022-11-13T05:37:39.866Z,0.67
2022-11-13T05:40:26.585Z,0.68
2022-11-13T05:43:13.119Z,0.68
2022-11-13T05:46:06.452Z,0.68
2022-11-13T05:48:55.047Z,0.67
2022-11-13T05:51:41.558Z,0.68
2022-11-13T05:54:28.205Z,0.67
2022-11-13T05:57:14.722Z,0.68
2022-11-13T06:00:01.471Z,0.68
2022-11-13T06:02:49.424Z,0.68
2022-11-13T06:05:36.330Z,0.65
2022-11-13T06:08:22.546Z,0.65
2022-11-13T06:11:12.771Z,0.66
2022-11-13T06:14:00.612Z,0.61
2022-11-13T06:16:47.218Z,0.60
2022-11-13T06:19:35.133Z,0.58
2022-11-13T06:22:21.699Z,0.56
2022-11-13T06:25:08.874Z,0.57
2022-11-13T06:27:55.742Z,0.50
2022-11-13T06:30:42.603Z,0.53
2022-11-13T06:33:29.736Z,0.52
2022-11-13T06:36:19.278Z,0.55
2022-11-13T06:39:08.626Z,0.56
2022-11-13T06:41:55.574Z,0.55
2022-11-13T06:44:42.677Z,0.55
2022-11-13T06:47:29.983Z,0.53
2022-11-13T06:50:16.930Z,0.57
2022-11-13T06:53:04.819Z,0.56
2022-11-13T06:55:54.479Z,0.56
2022-11-13T06:58:41.676Z,0.59
2022-11-13T07:01:28.633Z,0.55
2022-11-13T07:04:15.243Z,0.58
2022-11-13T07:07:01.985Z,0.64
2022-11-13T07:09:50.194Z,0.63
2022-11-13T07:12:36.939Z,0.70
2022-11-13T07:15:23.252Z,0.71
2022-11-13T07:18:09.659Z,0.74
2022-11-13T07:20:56.177Z,0.78
2022-11-13T07:23:43.482Z,0.78
2022-11-13T07:26:31.806Z,0.83
2022-11-13T07:29:18.810Z,0.87
2022-11-13T07:32:06.012Z,0.93
2022-11-13T07:34:52.744Z,0.97
2022-11-13T07:37:39.767Z,1.03
2022-11-13T07:40:27.047Z,1.04
2022-11-13T07:43:15.045Z,1.07
2022-11-13T07:46:02.241Z,1.16
2022-11-13T07:48:48.739Z,1.18
2022-11-13T07:51:35.287Z,1.26
2022-11-13T07:54:21.713Z,1.32
2022-11-13T07:57:08.617Z,1.35
2022-11-13T07:59:56.463Z,1.44
2022-11-13T08:02:42.853Z,1.53
2022-11-13T08:05:31.475Z,1.57
2022-11-13T08:08:18.578Z,1.64
2022-11-13T08:11:06.873Z,1.70
2022-11-13T08:13:54.049Z,1.72
2022-11-13T08:16:41.859Z,1.77
2022-11-13T08:19:28.435Z,1.83
2022-11-13T08:22:15.175Z,1.95
2022-11-13T08:25:01.852Z,2.00
2022-11-13T08:27:48.264Z,2.10
2022-11-13T08:30:34.887Z,2.21
2022-11-13T08:33:23.004Z,2.29
2022-11-13T08:36:11.230Z,2.40
2022-11-13T08:38:57.811Z,2.46
2022-11-13T08:41:44.470Z,2.47
2022-11-13T08:44:31.417Z,2.57
2022-11-13T08:47:18.020Z,2.65
2022-11-13T08:50:07.917Z,2.76
2022-11-13T08:52:55.746Z,2.82
2022-11-13T08:55:42.373Z,2.90
2022-11-13T08:58:29.467Z,3.00
2022-11-13T09:01:16.897Z,3.08
2022-11-13T09:04:03.873Z,3.12
2022-11-13T09:06:51.524Z,3.23
2022-11-13T09:09:38.315Z,3.32
2022-11-13T09:12:24.975Z,3.39
2022-11-13T09:15:12.833Z,3.48
2022-11-13T09:18:00.355Z,3.53
2022-11-13T09:20:47.335Z,3.62
2022-11-13T09:23:36.173Z,3.71
2022-11-13T09:26:23.266Z,3.84
2022-11-13T09:29:10.715Z,3.93
2022-11-13T09:31:58.050Z,4.03
2022-11-13T09:34:44.617Z,4.12
2022-11-13T09:37:32.680Z,4.19
2022-11-13T09:40:29.236Z,4.26
2022-11-13T09:43:26.618Z,4.31
2022-11-13T09:46:19.808Z,4.38
2022-11-13T09:49:16.318Z,4.42
2022-11-13T09:52:06.998Z,4.49
2022-11-13T09:54:54.173Z,4.54
2022-11-13T09:57:49.275Z,4.62
2022-11-13T10:00:37.019Z,4.72
2022-11-13T10:06:58.277Z,4.87
2022-11-13T10:09:56.358Z,4.97
2022-11-13T10:12:46.044Z,5.08
2022-11-13T10:15:33.039Z,5.13
2022-11-13T10:18:23.505Z,5.24
2022-11-13T10:21:18.974Z,5.33
2022-11-13T10:24:16.886Z,5.49
2022-11-13T10:27:06.343Z,5.61
2022-11-13T10:29:54.432Z,5.73
2022-11-13T10:32:40.738Z,5.82
2022-11-13T10:35:45.469Z,5.88
2022-11-13T10:38:37.013Z,5.99
2022-11-13T10:41:24.266Z,6.19
2022-11-13T10:44:29.825Z,6.26
2022-11-13T10:47:42.561Z,6.27
2022-11-13T10:50:28.671Z,6.40
2022-11-13T10:53:17.245Z,6.45
2022-11-13T10:56:12.804Z,6.50
2022-11-13T10:59:12.044Z,6.62
2022-11-13T11:02:09.414Z,6.61
2022-11-13T11:05:17.366Z,6.68
2022-11-13T11:08:10.990Z,6.81
2022-11-13T11:11:18.775Z,6.90
2022-11-13T11:14:21.731Z,6.92
2022-11-13T11:17:10.310Z,6.90
2022-11-13T11:20:02.484Z,7.11
2022-11-13T11:22:53.974Z,7.20
2022-11-13T11:25:44.875Z,7.20
2022-11-13T11:28:36.381Z,7.22
2022-11-13T11:31:31.090Z,7.28
2022-11-13T11:34:23.333Z,7.32
2022-11-13T11:37:15.322Z,7.30
2022-11-13T11:40:07.955Z,7.40
2022-11-13T11:43:01.226Z,7.38
2022-11-13T11:45:48.892Z,7.42
2022-11-13T11:48:35.850Z,7.49
2022-11-13T11:51:27.590Z,7.46
2022-11-13T11:54:28.039Z,7.54
2022-11-13T11:57:29.510Z,7.60
2022-11-13T12:00:19.098Z,7.61
2022-11-13T12:03:38.248Z,7.62
2022-11-13T12:06:37.882Z,7.57
2022-11-13T12:09:29.708Z,7.80
2022-11-13T12:12:26.574Z,7.79
2022-11-13T12:15:19.816Z,7.96
2022-11-13T12:18:15.157Z,7.92
2022-11-13T12:21:14.997Z,7.95
2022-11-13T12:24:24.044Z,7.94
2022-11-13T12:27:21.670Z,7.94
2022-11-13T12:30:17.228Z,7.93
2022-11-13T12:33:26.941Z,7.98
2022-11-13T12:36:15.583Z,7.94
2022-11-13T12:39:07.532Z,8.04
2022-11-13T12:41:59.938Z,8.05
2022-11-13T12:44:59.135Z,8.11
2022-11-13T12:47:45.557Z,8.12
2022-11-13T12:50:33.145Z,8.14
2022-11-13T12:53:27.070Z,8.18
2022-11-13T12:56:17.830Z,8.20
2022-11-13T12:59:31.311Z,8.23
2022-11-13T13:02:50.501Z,8.23
2022-11-13T13:06:07.916Z,8.25
2022-11-13T13:09:03.902Z,8.24
2022-11-13T13:12:00.837Z,8.41
2022-11-13T13:15:08.610Z,8.41
2022-11-13T13:18:05.758Z,8.44
2022-11-13T13:21:03.093Z,8.42
2022-11-13T13:23:51.186Z,8.56
2022-11-13T13:26:46.005Z,8.56
2022-11-13T13:29:34.811Z,8.61
2022-11-13T13:32:27.469Z,8.60
2022-11-13T13:35:19.823Z,8.61
2022-11-13T13:38:16.653Z,8.62
2022-11-13T13:41:17.810Z,8.62
2022-11-13T13:44:25.374Z,8.70
2022-11-13T13:47:20.336Z,8.72
2022-11-13T13:50:09.045Z,8.66
2022-11-13T13:52:59.666Z,8.67
2022-11-13T13:55:49.374Z,8.74
2022-11-13T13:58:39.089Z,8.67
2022-11-13T14:01:30.703Z,8.70
2022-11-13T14:04:20.559Z,8.70
2022-11-13T14:07:21.182Z,8.70
2022-11-13T14:10:16.477Z,8.68
2022-11-13T14:13:04.537Z,8.70
2022-11-13T14:16:02.102Z,8.67
2022-11-13T14:18:48.909Z,8.67
2022-11-13T14:21:35.549Z,8.68
2022-11-13T14:24:25.445Z,8.70
2022-11-13T14:27:16.903Z,8.66
2022-11-13T14:30:04.533Z,8.64
2022-11-13T14:32:51.359Z,8.62
2022-11-13T14:35:40.982Z,8.55
2022-11-13T14:38:29.966Z,8.58
2022-11-13T14:41:23.725Z,8.53
2022-11-13T14:44:13.233Z,8.54
2022-11-13T14:47:04.429Z,8.51
2022-11-13T14:49:51.366Z,8.46
2022-11-13T14:52:37.915Z,8.45
2022-11-13T14:55:26.260Z,8.51
2022-11-13T14:58:14.765Z,8.52
2022-11-13T15:01:15.023Z,8.44
2022-11-13T15:04:01.452Z,8.43
2022-11-13T15:06:48.866Z,8.42
2022-11-13T15:09:35.827Z,8.38
2022-11-13T15:12:22.279Z,8.37
2022-11-13T15:15:14.511Z,8.36
2022-11-13T15:18:03.637Z,8.33
2022-11-13T15:20:50.435Z,8.29
2022-11-13T15:23:36.691Z,8.25
2022-11-13T15:26:23.277Z,8.21
2022-11-13T15:29:09.936Z,8.17
2022-11-13T15:31:57.264Z,8.12
2022-11-13T15:34:45.070Z,8.08
2022-11-13T15:37:31.494Z,8.02
2022-11-13T15:40:18.751Z,7.99
2022-11-13T15:43:05.119Z,7.94
2022-11-13T15:45:51.759Z,7.89
2022-11-13T15:48:38.176Z,7.83
2022-11-13T15:51:32.474Z,7.69
2022-11-13T15:54:26.427Z,7.62
2022-11-13T15:57:19.436Z,7.60
2022-11-13T16:00:13.727Z,7.50
2022-11-13T16:03:00.236Z,7.51
2022-11-13T16:05:46.791Z,7.42
2022-11-13T16:08:34.798Z,7.36
2022-11-13T16:11:22.116Z,7.31
2022-11-13T16:14:09.008Z,7.29
2022-11-13T16:16:55.574Z,7.28
2022-11-13T16:19:43.231Z,7.07
2022-11-13T16:22:29.722Z,6.99
2022-11-13T16:25:19.664Z,6.83
2022-11-13T16:28:09.618Z,6.80
2022-11-13T16:30:56.484Z,6.69
2022-11-13T16:33:44.654Z,6.61
2022-11-13T16:36:31.497Z,6.63
2022-11-13T16:39:18.057Z,6.50
2022-11-13T16:42:06.301Z,6.40
2022-11-13T16:44:54.031Z,6.40
2022-11-13T16:47:40.168Z,6.22
2022-11-13T16:50:30.591Z,6.21
2022-11-13T16:53:17.052Z,6.13
2022-11-13T16:56:07.191Z,6.07
2022-11-13T16:58:56.233Z,6.04
2022-11-13T17:01:43.024Z,6.01
2022-11-13T17:04:29.881Z,5.96
2022-11-13T17:07:17.903Z,5.93
2022-11-13T17:10:29.555Z,5.87
2022-11-13T17:13:11.514Z,5.85
2022-11-13T17:16:02.676Z,5.82
2022-11-13T17:18:49.760Z,5.78
2022-11-13T17:21:38.941Z,5.71
2022-11-13T17:24:29.323Z,5.68
2022-11-13T17:27:15.816Z,5.65
2022-11-13T17:30:03.162Z,5.62
2022-11-13T17:32:51.195Z,5.55
2022-11-13T17:35:37.390Z,5.48
2022-11-13T17:38:24.410Z,5.41
2022-11-13T17:41:13.016Z,5.37
2022-11-13T17:44:01.506Z,5.35
2022-11-13T17:46:49.162Z,5.24
2022-11-13T17:49:36.958Z,5.25
2022-11-13T17:52:23.674Z,5.17
2022-11-13T17:55:13.038Z,5.10
2022-11-13T17:58:02.527Z,5.08
2022-11-13T18:00:49.286Z,5.02
2022-11-13T18:03:35.977Z,5.01
2022-11-13T18:06:24.118Z,4.98
2022-11-13T18:09:10.910Z,4.96
2022-11-13T18:11:57.151Z,4.93
2022-11-13T18:14:44.300Z,4.92
2022-11-13T18:17:30.978Z,4.90
2022-11-13T18:20:17.853Z,4.77
2022-11-13T18:23:05.627Z,4.70
2022-11-13T18:25:52.359Z,4.68
2022-11-13T18:28:40.611Z,4.66
2022-11-13T18:31:27.877Z,4.68
2022-11-13T18:34:17.108Z,4.74
2022-11-13T18:37:03.645Z,4.70
2022-11-13T18:39:51.957Z,4.64
2022-11-13T18:42:38.772Z,4.56
2022-11-13T18:45:24.984Z,4.53
2022-11-13T18:48:11.549Z,4.51
2022-11-13T18:50:59.128Z,4.50
2022-11-13T18:53:48.235Z,4.41
2022-11-13T18:56:36.206Z,4.40
2022-11-13T18:59:22.429Z,4.35
2022-11-13T19:02:11.135Z,4.31
2022-11-13T19:04:57.598Z,4.29
2022-11-13T19:07:44.658Z,4.22
2022-11-13T19:10:31.246Z,4.24
2022-11-13T19:13:18.875Z,4.20
2022-11-13T19:16:06.776Z,4.19
2022-11-13T19:18:54.907Z,4.12
2022-11-13T19:21:42.216Z,4.14
2022-11-13T19:24:28.770Z,4.10
2022-11-13T19:27:15.390Z,4.08
2022-11-13T19:30:03.473Z,3.97
2022-11-13T19:32:50.033Z,3.95
2022-11-13T19:35:37.771Z,3.93
2022-11-13T19:38:25.630Z,3.88
2022-11-13T19:41:13.601Z,3.83
2022-11-13T19:44:01.014Z,3.83
2022-11-13T19:46:50.602Z,3.81
2022-11-13T19:49:39.623Z,3.78
2022-11-13T19:52:26.079Z,3.72
2022-11-13T19:55:12.614Z,3.72
2022-11-13T19:57:59.331Z,3.70
2022-11-13T20:00:46.039Z,3.66
2022-11-13T20:03:33.907Z,3.62
2022-11-13T20:06:20.581Z,3.56
2022-11-13T20:09:07.689Z,3.56
2022-11-13T20:11:54.298Z,3.53
2022-11-13T20:14:40.779Z,3.53
2022-11-13T20:17:27.364Z,3.53
2022-11-13T20:20:15.363Z,3.64
2022-11-13T20:23:02.064Z,3.80
2022-11-13T20:25:56.829Z,3.87
2022-11-13T20:28:44.070Z,3.96
2022-11-13T20:31:30.888Z,3.98
2022-11-13T20:34:17.391Z,4.03
2022-11-13T20:37:05.085Z,4.09
2022-11-13T20:39:51.960Z,4.12
2022-11-13T20:42:38.724Z,4.11
2022-11-13T20:45:25.285Z,4.18
2022-11-13T20:48:12.013Z,4.18
2022-11-13T20:50:58.876Z,4.20
2022-11-13T20:53:47.287Z,4.20
2022-11-13T20:56:33.481Z,4.26
2022-11-13T20:59:20.199Z,4.30
2022-11-13T21:02:06.708Z,4.31
2022-11-13T21:04:53.283Z,4.31
2022-11-13T21:07:39.880Z,4.37
2022-11-13T21:10:28.313Z,4.36
2022-11-13T21:13:14.852Z,4.37
2022-11-13T21:16:06.133Z,4.43
2022-11-13T21:18:52.830Z,4.41
2022-11-13T21:21:40.506Z,4.43
2022-11-13T21:24:26.702Z,4.43
2022-11-13T21:27:14.766Z,4.44
2022-11-13T21:30:01.535Z,4.43
2022-11-13T21:32:48.014Z,4.44
2022-11-13T21:35:34.727Z,4.48
2022-11-13T21:38:21.301Z,4.49
2022-11-13T21:41:22.456Z,4.51
2022-11-13T21:44:11.555Z,4.51
2022-11-13T21:46:58.161Z,4.52
2022-11-13T21:49:44.891Z,4.55
2022-11-13T21:52:32.017Z,4.54
2022-11-13T21:55:18.774Z,4.49
2022-11-13T21:58:05.274Z,4.55
2022-11-13T22:00:53.382Z,4.58
2022-11-13T22:03:40.290Z,4.58
2022-11-13T22:06:28.406Z,4.53
2022-11-13T22:09:16.355Z,4.56
2022-11-13T22:12:02.859Z,4.45
2022-11-13T22:14:49.194Z,4.48
2022-11-13T22:17:37.054Z,4.44
2022-11-13T22:20:24.021Z,4.38
2022-11-13T22:23:10.973Z,4.43
2022-11-13T22:26:02.970Z,4.40
2022-11-13T22:28:49.927Z,4.40
2022-11-13T22:31:37.666Z,4.39
2022-11-13T22:34:25.422Z,4.39
2022-11-13T22:37:11.937Z,4.42
2022-11-13T22:39:58.465Z,4.37
2022-11-13T22:42:45.077Z,4.38
2022-11-13T22:45:31.664Z,4.40
2022-11-13T22:48:18.028Z,4.43
2022-11-13T22:51:09.019Z,4.43
2022-11-13T22:53:58.739Z,4.41
2022-11-13T22:56:45.178Z,4.43
2022-11-13T22:59:31.439Z,4.43
2022-11-13T23:02:18.055Z,4.44
2022-11-13T23:05:05.238Z,4.40
2022-11-13T23:07:54.003Z,4.39
2022-11-13T23:10:40.464Z,4.42
2022-11-13T23:13:27.322Z,4.36
2022-11-13T23:16:14.241Z,4.39
2022-11-13T23:19:01.948Z,4.37
2022-11-13T23:21:48.988Z,4.39
2022-11-13T23:24:36.850Z,4.35
2022-11-13T23:27:23.482Z,4.30
2022-11-13T23:30:11.422Z,4.33
2022-11-13T23:32:57.943Z,4.38
2022-11-13T23:35:44.676Z,4.40
2022-11-13T23:38:31.572Z,4.37
2022-11-13T23:41:19.473Z,4.38
2022-11-13T23:44:09.108Z,4.40
2022-11-13T23:46:56.227Z,4.40
2022-11-13T23:49:42.617Z,4.39
2022-11-13T23:52:29.254Z,4.29
2022-11-13T23:55:16.487Z,4.32
2022-11-13T23:58:06.483Z,4.27
